YTNC weather

Tuncurry Airport
New South Wales, Australia

Public forecast

Using degrees Celsius for public forecast. Weather courtesy of forecast.io.

METAR (pilot weather report)

Closest report is Taree Airport, 15.8 nm (29.2 km) N. Retrieved 2019/04/26 09:00 UTC (33 minutes ago):

YTRE 260900Z AUTO 00000KT 9999 // NCD 21/16 Q1013

TAF (pilot weather forecast)

Closest forecast is Taree Airport, 15.8 nm (29.2 km) N. Retrieved 2019/04/26 08:03 UTC (2 hours ago):

TAF YTRE 260658Z 2608/2620 27010KT CAVOK FM261500 22010KT CAVOK FM261800 22010KT 9999 SCT025